sensor_id;sensor_type;location;lat;lon;timestamp;pressure;altitude;pressure_sealevel;temperature;humidity
72409;BME280;60402;48.082;11.628;2022-09-12T00:02:24;95566.53;;;9.94;100.00
72409;BME280;60402;48.082;11.628;2022-09-12T00:04:50;95577.56;;;10.05;100.00
72409;BME280;60402;48.082;11.628;2022-09-12T00:07:15;95589.13;;;10.10;100.00
72409;BME280;60402;48.082;11.628;2022-09-12T00:09:40;95564.78;;;10.00;100.00
72409;BME280;60402;48.082;11.628;2022-09-12T00:12:06;95580.59;;;10.14;100.00
72409;BME280;60402;48.082;11.628;2022-09-12T00:14:32;95581.47;;;10.11;100.00
72409;BME280;60402;48.082;11.628;2022-09-12T00:16:57;95577.50;;;10.08;100.00
72409;BME280;60402;48.082;11.628;2022-09-12T00:19:27;95581.31;;;10.18;99.84
72409;BME280;60402;48.082;11.628;2022-09-12T00:21:53;95569.09;;;10.05;100.00
72409;BME280;60402;48.082;11.628;2022-09-12T00:24:18;95565.16;;;10.02;100.00
72409;BME280;60402;48.082;11.628;2022-09-12T00:26:44;95567.25;;;9.98;100.00
72409;BME280;60402;48.082;11.628;2022-09-12T00:29:14;95549.16;;;9.95;100.00
72409;BME280;60402;48.082;11.628;2022-09-12T00:31:40;95573.44;;;10.09;99.96
72409;BME280;60402;48.082;11.628;2022-09-12T00:34:05;95573.34;;;10.13;99.20
72409;BME280;60402;48.082;11.628;2022-09-12T00:36:30;95567.06;;;10.05;99.33
72409;BME280;60402;48.082;11.628;2022-09-12T00:38:56;95545.28;;;9.89;100.00
72409;BME280;60402;48.082;11.628;2022-09-12T00:41:30;95564.97;;;9.93;99.49
72409;BME280;60402;48.082;11.628;2022-09-12T00:44:00;95546.41;;;9.92;99.81
72409;BME280;60402;48.082;11.628;2022-09-12T00:48:59;95548.97;;;9.86;99.42
72409;BME280;60402;48.082;11.628;2022-09-12T00:51:26;95548.25;;;9.82;99.18
72409;BME280;60402;48.082;11.628;2022-09-12T00:53:53;95545.06;;;9.80;99.00
72409;BME280;60402;48.082;11.628;2022-09-12T00:56:21;95539.44;;;9.80;98.30
72409;BME280;60402;48.082;11.628;2022-09-12T00:58:56;95548.16;;;9.86;98.18
72409;BME280;60402;48.082;11.628;2022-09-12T01:01:23;95530.91;;;9.84;97.49
72409;BME280;60402;48.082;11.628;2022-09-12T01:03:49;95546.94;;;9.87;97.96
72409;BME280;60402;48.082;11.628;2022-09-12T01:06:18;95547.91;;;9.80;99.19
72409;BME280;60402;48.082;11.628;2022-09-12T01:08:46;95530.41;;;9.69;99.63
72409;BME280;60402;48.082;11.628;2022-09-12T01:11:13;95542.13;;;9.67;100.00
72409;BME280;60402;48.082;11.628;2022-09-12T01:13:39;95528.09;;;9.64;99.89
72409;BME280;60402;48.082;11.628;2022-09-12T01:16:06;95535.97;;;9.72;99.62
72409;BME280;60402;48.082;11.628;2022-09-12T01:21:34;95527.91;;;9.55;100.00
72409;BME280;60402;48.082;11.628;2022-09-12T01:24:21;95533.19;;;9.53;100.00
72409;BME280;60402;48.082;11.628;2022-09-12T01:27:18;95507.16;;;9.45;100.00
72409;BME280;60402;48.082;11.628;2022-09-12T01:30:05;95515.03;;;9.54;100.00
72409;BME280;60402;48.082;11.628;2022-09-12T01:38:26;95519.53;;;9.51;99.92
72409;BME280;60402;48.082;11.628;2022-09-12T01:41:00;95516.84;;;9.44;100.00
72409;BME280;60402;48.082;11.628;2022-09-12T01:43:35;95504.84;;;9.40;99.81
72409;BME280;60402;48.082;11.628;2022-09-12T01:46:13;95507.53;;;9.47;99.49
72409;BME280;60402;48.082;11.628;2022-09-12T01:49:06;95509.97;;;9.45;100.00
72409;BME280;60402;48.082;11.628;2022-09-12T01:51:55;95510.06;;;9.41;100.00
72409;BME280;60402;48.082;11.628;2022-09-12T01:54:28;95496.97;;;9.31;100.00
72409;BME280;60402;48.082;11.628;2022-09-12T01:56:59;95482.78;;;9.18;100.00
72409;BME280;60402;48.082;11.628;2022-09-12T01:59:30;95499.47;;;9.29;100.00
72409;BME280;60402;48.082;11.628;2022-09-12T02:02:01;95481.38;;;9.27;99.43
72409;BME280;60402;48.082;11.628;2022-09-12T02:04:40;95484.19;;;9.27;99.41
72409;BME280;60402;48.082;11.628;2022-09-12T02:07:13;95492.16;;;9.32;99.05
72409;BME280;60402;48.082;11.628;2022-09-12T02:09:48;95505.03;;;9.33;99.76
72409;BME280;60402;48.082;11.628;2022-09-12T02:12:19;95485.50;;;9.22;99.51
72409;BME280;60402;48.082;11.628;2022-09-12T02:14:52;95490.94;;;9.33;98.96
72409;BME280;60402;48.082;11.628;2022-09-12T02:17:21;95492.06;;;9.35;98.47
72409;BME280;60402;48.082;11.628;2022-09-12T02:20:02;95485.69;;;9.31;98.96
72409;BME280;60402;48.082;11.628;2022-09-12T02:22:33;95475.31;;;9.28;98.87
72409;BME280;60402;48.082;11.628;2022-09-12T02:25:01;95481.75;;;9.29;97.17
72409;BME280;60402;48.082;11.628;2022-09-12T02:27:48;95483.78;;;9.28;97.59
72409;BME280;60402;48.082;11.628;2022-09-12T02:30:14;95464.69;;;9.16;97.49
72409;BME280;60402;48.082;11.628;2022-09-12T02:33:06;95480.75;;;9.19;99.07
72409;BME280;60402;48.082;11.628;2022-09-12T02:35:38;95476.03;;;9.12;100.00
72409;BME280;60402;48.082;11.628;2022-09-12T02:41:14;95477.00;;;9.06;99.55
72409;BME280;60402;48.082;11.628;2022-09-12T02:43:41;95481.91;;;9.02;99.59
72409;BME280;60402;48.082;11.628;2022-09-12T02:46:09;95480.91;;;8.92;100.00
72409;BME280;60402;48.082;11.628;2022-09-12T02:48:39;95456.50;;;8.85;100.00
72409;BME280;60402;48.082;11.628;2022-09-12T02:51:06;95476.78;;;8.96;99.95
72409;BME280;60402;48.082;11.628;2022-09-12T02:53:32;95464.28;;;8.98;99.53
72409;BME280;60402;48.082;11.628;2022-09-12T02:55:58;95464.00;;;8.92;99.32
72409;BME280;60402;48.082;11.628;2022-09-12T02:58:26;95475.50;;;8.81;100.00
72409;BME280;60402;48.082;11.628;2022-09-12T03:04:24;95469.91;;;8.78;100.00
72409;BME280;60402;48.082;11.628;2022-09-12T03:09:46;95472.28;;;8.79;100.00
72409;BME280;60402;48.082;11.628;2022-09-12T03:21:11;95467.16;;;8.74;100.00
72409;BME280;60402;48.082;11.628;2022-09-12T03:23:43;95462.94;;;8.66;100.00
72409;BME280;60402;48.082;11.628;2022-09-12T03:26:24;95459.00;;;8.60;100.00
72409;BME280;60402;48.082;11.628;2022-09-12T03:28:53;95461.91;;;8.56;100.00
72409;BME280;60402;48.082;11.628;2022-09-12T03:31:19;95453.53;;;8.53;100.00
72409;BME280;60402;48.082;11.628;2022-09-12T03:33:45;95460.44;;;8.48;100.00
72409;BME280;60402;48.082;11.628;2022-09-12T03:36:18;95450.97;;;8.38;100.00
72409;BME280;60402;48.082;11.628;2022-09-12T03:38:45;95453.00;;;8.38;100.00
72409;BME280;60402;48.082;11.628;2022-09-12T03:41:10;95463.31;;;8.44;100.00
72409;BME280;60402;48.082;11.628;2022-09-12T03:43:35;95459.72;;;8.44;100.00
72409;BME280;60402;48.082;11.628;2022-09-12T03:46:00;95457.41;;;8.39;100.00
72409;BME280;60402;48.082;11.628;2022-09-12T03:48:26;95444.69;;;8.27;100.00
72409;BME280;60402;48.082;11.628;2022-09-12T03:50:51;95454.75;;;8.28;100.00
72409;BME280;60402;48.082;11.628;2022-09-12T03:53:16;95459.91;;;8.33;100.00
72409;BME280;60402;48.082;11.628;2022-09-12T03:55:42;95450.41;;;8.24;100.00
72409;BME280;60402;48.082;11.628;2022-09-12T03:58:07;95468.41;;;8.30;100.00
72409;BME280;60402;48.082;11.628;2022-09-12T04:00:32;95447.66;;;8.20;100.00
72409;BME280;60402;48.082;11.628;2022-09-12T04:02:58;95452.84;;;8.22;100.00
72409;BME280;60402;48.082;11.628;2022-09-12T04:05:24;95455.94;;;8.07;100.00
72409;BME280;60402;48.082;11.628;2022-09-12T04:07:50;95457.69;;;8.21;100.00
72409;BME280;60402;48.082;11.628;2022-09-12T04:10:15;95466.13;;;8.21;100.00
72409;BME280;60402;48.082;11.628;2022-09-12T04:12:41;95466.09;;;8.25;100.00
72409;BME280;60402;48.082;11.628;2022-09-12T04:15:07;95451.47;;;8.10;100.00
72409;BME280;60402;48.082;11.628;2022-09-12T04:17:33;95474.53;;;8.25;100.00
72409;BME280;60402;48.082;11.628;2022-09-12T04:19:59;95468.34;;;8.33;100.00
72409;BME280;60402;48.082;11.628;2022-09-12T04:22:25;95461.91;;;8.33;100.00
72409;BME280;60402;48.082;11.628;2022-09-12T04:24:51;95465.63;;;8.26;100.00
72409;BME280;60402;48.082;11.628;2022-09-12T04:27:16;95456.34;;;8.29;100.00
72409;BME280;60402;48.082;11.628;2022-09-12T04:29:41;95469.19;;;8.30;100.00
72409;BME280;60402;48.082;11.628;2022-09-12T04:32:07;95459.44;;;8.35;99.95
72409;BME280;60402;48.082;11.628;2022-09-12T04:34:32;95456.41;;;8.26;100.00
72409;BME280;60402;48.082;11.628;2022-09-12T04:36:57;95456.28;;;8.33;100.00
72409;BME280;60402;48.082;11.628;2022-09-12T04:39:23;95456.28;;;8.33;99.66
72409;BME280;60402;48.082;11.628;2022-09-12T04:41:49;95460.41;;;8.28;100.00
72409;BME280;60402;48.082;11.628;2022-09-12T04:44:16;95457.63;;;8.25;100.00
72409;BME280;60402;48.082;11.628;2022-09-12T04:46:45;95459.66;;;8.24;100.00
72409;BME280;60402;48.082;11.628;2022-09-12T04:49:11;95459.28;;;8.22;100.00
72409;BME280;60402;48.082;11.628;2022-09-12T04:51:39;95451.38;;;8.13;100.00
72409;BME280;60402;48.082;11.628;2022-09-12T04:54:17;95453.78;;;8.15;100.00
72409;BME280;60402;48.082;11.628;2022-09-12T04:56:45;95455.81;;;8.14;100.00
72409;BME280;60402;48.082;11.628;2022-09-12T04:59:12;95454.88;;;8.21;100.00
72409;BME280;60402;48.082;11.628;2022-09-12T05:01:38;95467.59;;;8.29;100.00
72409;BME280;60402;48.082;11.628;2022-09-12T05:04:04;95451.72;;;8.19;100.00
72409;BME280;60402;48.082;11.628;2022-09-12T05:06:34;95462.47;;;8.24;100.00
72409;BME280;60402;48.082;11.628;2022-09-12T05:09:01;95474.03;;;8.30;100.00
72409;BME280;60402;48.082;11.628;2022-09-12T05:11:32;95469.13;;;8.34;100.00
72409;BME280;60402;48.082;11.628;2022-09-12T05:13:58;95471.22;;;8.30;100.00
72409;BME280;60402;48.082;11.628;2022-09-12T05:16:25;95468.09;;;8.24;100.00
72409;BME280;60402;48.082;11.628;2022-09-12T05:18:50;95465.47;;;8.13;100.00
72409;BME280;60402;48.082;11.628;2022-09-12T05:21:19;95474.47;;;8.28;100.00
72409;BME280;60402;48.082;11.628;2022-09-12T05:23:45;95474.38;;;8.32;100.00
72409;BME280;60402;48.082;11.628;2022-09-12T05:26:14;95471.72;;;8.25;100.00
72409;BME280;60402;48.082;11.628;2022-09-12T05:28:40;95475.63;;;8.31;100.00
72409;BME280;60402;48.082;11.628;2022-09-12T05:31:12;95484.69;;;8.42;100.00
72409;BME280;60402;48.082;11.628;2022-09-12T05:33:40;95485.19;;;8.37;100.00
72409;BME280;60402;48.082;11.628;2022-09-12T05:36:08;95481.63;;;8.33;100.00
72409;BME280;60402;48.082;11.628;2022-09-12T05:38:34;95476.16;;;8.45;100.00
72409;BME280;60402;48.082;11.628;2022-09-12T05:41:10;95486.88;;;8.54;100.00
72409;BME280;60402;48.082;11.628;2022-09-12T05:43:37;95489.25;;;8.56;100.00
72409;BME280;60402;48.082;11.628;2022-09-12T05:46:04;95488.97;;;8.70;100.00
72409;BME280;60402;48.082;11.628;2022-09-12T05:48:33;95484.88;;;8.75;100.00
72409;BME280;60402;48.082;11.628;2022-09-12T05:51:05;95476.63;;;8.84;100.00
72409;BME280;60402;48.082;11.628;2022-09-12T05:53:34;95494.75;;;9.03;100.00
72409;BME280;60402;48.082;11.628;2022-09-12T05:56:19;95494.56;;;9.13;100.00
72409;BME280;60402;48.082;11.628;2022-09-12T05:58:47;95483.13;;;9.20;100.00
72409;BME280;60402;48.082;11.628;2022-09-12T06:01:17;95474.94;;;9.26;99.56
72409;BME280;60402;48.082;11.628;2022-09-12T06:03:45;95481.38;;;9.27;99.63
72409;BME280;60402;48.082;11.628;2022-09-12T06:06:11;95480.00;;;9.35;99.38
72409;BME280;60402;48.082;11.628;2022-09-12T06:08:39;95485.31;;;9.49;98.98
72409;BME280;60402;48.082;11.628;2022-09-12T06:11:06;95483.47;;;9.59;98.77
72409;BME280;60402;48.082;11.628;2022-09-12T06:13:33;95486.34;;;9.75;98.36
72409;BME280;60402;48.082;11.628;2022-09-12T06:16:19;95478.66;;;9.76;98.20
72409;BME280;60402;48.082;11.628;2022-09-12T06:18:50;95476.38;;;9.87;98.29
72409;BME280;60402;48.082;11.628;2022-09-12T06:21:16;95482.03;;;10.03;98.24
72409;BME280;60402;48.082;11.628;2022-09-12T06:23:42;95479.09;;;10.07;97.52
72409;BME280;60402;48.082;11.628;2022-09-12T06:26:09;95484.75;;;10.23;97.01
72409;BME280;60402;48.082;11.628;2022-09-12T06:28:37;95478.25;;;10.42;96.11
72409;BME280;60402;48.082;11.628;2022-09-12T06:31:04;95486.09;;;10.80;95.34
72409;BME280;60402;48.082;11.628;2022-09-12T06:33:34;95492.25;;;10.91;94.63
72409;BME280;60402;48.082;11.628;2022-09-12T06:36:09;95488.22;;;11.05;94.63
72409;BME280;60402;48.082;11.628;2022-09-12T06:38:35;95485.34;;;11.21;94.65
72409;BME280;60402;48.082;11.628;2022-09-12T06:41:08;95468.97;;;11.42;93.31
72409;BME280;60402;48.082;11.628;2022-09-12T06:43:34;95469.44;;;11.66;91.58
72409;BME280;60402;48.082;11.628;2022-09-12T06:46:00;95480.69;;;11.95;89.23
72409;BME280;60402;48.082;11.628;2022-09-12T06:48:26;95488.06;;;12.05;89.69
72409;BME280;60402;48.082;11.628;2022-09-12T06:51:04;95485.66;;;12.16;89.72
72409;BME280;60402;48.082;11.628;2022-09-12T06:53:32;95480.00;;;12.16;88.30
72409;BME280;60402;48.082;11.628;2022-09-12T06:56:04;95482.34;;;12.43;88.55
72409;BME280;60402;48.082;11.628;2022-09-12T06:58:31;95486.91;;;12.75;87.59
72409;BME280;60402;48.082;11.628;2022-09-12T07:01:10;95474.00;;;13.18;84.03
72409;BME280;60402;48.082;11.628;2022-09-12T07:03:36;95486.19;;;13.72;81.48
72409;BME280;60402;48.082;11.628;2022-09-12T07:06:10;95481.56;;;13.96;82.13
72409;BME280;60402;48.082;11.628;2022-09-12T07:08:37;95472.22;;;13.87;80.74
72409;BME280;60402;48.082;11.628;2022-09-12T07:13:40;95494.44;;;14.60;78.83
72409;BME280;60402;48.082;11.628;2022-09-12T07:16:07;95492.75;;;14.99;78.27
72409;BME280;60402;48.082;11.628;2022-09-12T07:18:33;95487.03;;;15.54;76.06
72409;BME280;60402;48.082;11.628;2022-09-12T07:21:00;95483.06;;;17.02;73.09
72409;BME280;60402;48.082;11.628;2022-09-12T07:23:26;95474.88;;;18.87;67.04
72409;BME280;60402;48.082;11.628;2022-09-12T07:25:52;95482.34;;;20.87;56.71
72409;BME280;60402;48.082;11.628;2022-09-12T07:28:18;95474.88;;;23.29;50.21
72409;BME280;60402;48.082;11.628;2022-09-12T07:30:44;95480.47;;;25.79;43.74
72409;BME280;60402;48.082;11.628;2022-09-12T07:33:09;95479.50;;;24.02;44.99
72409;BME280;60402;48.082;11.628;2022-09-12T07:35:34;95476.84;;;24.09;45.17
72409;BME280;60402;48.082;11.628;2022-09-12T07:38:00;95480.94;;;24.61;43.01
72409;BME280;60402;48.082;11.628;2022-09-12T07:40:25;95481.66;;;26.91;39.03
72409;BME280;60402;48.082;11.628;2022-09-12T07:42:50;95497.16;;;28.26;35.55
72409;BME280;60402;48.082;11.628;2022-09-12T07:45:16;95484.59;;;28.11;37.36
72409;BME280;60402;48.082;11.628;2022-09-12T07:47:41;95488.19;;;32.67;29.80
72409;BME280;60402;48.082;11.628;2022-09-12T07:50:07;95494.94;;;31.66;29.17
72409;BME280;60402;48.082;11.628;2022-09-12T07:52:32;95495.06;;;33.70;27.66
72409;BME280;60402;48.082;11.628;2022-09-12T07:54:57;95499.38;;;35.27;24.95
72409;BME280;60402;48.082;11.628;2022-09-12T07:57:22;95505.34;;;35.46;25.33
72409;BME280;60402;48.082;11.628;2022-09-12T07:59:49;95496.72;;;36.53;23.22
72409;BME280;60402;48.082;11.628;2022-09-12T08:02:14;95497.41;;;35.86;24.67
72409;BME280;60402;48.082;11.628;2022-09-12T08:04:39;95505.19;;;33.51;25.14
72409;BME280;60402;48.082;11.628;2022-09-12T08:07:07;95500.06;;;33.77;26.25
72409;BME280;60402;48.082;11.628;2022-09-12T08:09:32;95493.41;;;36.88;22.67
72409;BME280;60402;48.082;11.628;2022-09-12T08:11:57;95500.88;;;35.18;24.55
72409;BME280;60402;48.082;11.628;2022-09-12T08:14:23;95509.16;;;34.41;24.50
72409;BME280;60402;48.082;11.628;2022-09-12T08:16:48;95505.19;;;34.28;24.92
72409;BME280;60402;48.082;11.628;2022-09-12T08:19:13;95511.66;;;29.58;30.62
72409;BME280;60402;48.082;11.628;2022-09-12T08:21:39;95515.69;;;30.63;29.88
72409;BME280;60402;48.082;11.628;2022-09-12T08:24:05;95511.63;;;32.04;27.63
72409;BME280;60402;48.082;11.628;2022-09-12T08:26:32;95509.69;;;30.76;29.65
72409;BME280;60402;48.082;11.628;2022-09-12T08:28:58;95504.63;;;32.07;29.17
72409;BME280;60402;48.082;11.628;2022-09-12T08:31:25;95508.69;;;32.04;29.04
72409;BME280;60402;48.082;11.628;2022-09-12T08:33:53;95500.94;;;37.92;22.09
72409;BME280;60402;48.082;11.628;2022-09-12T08:36:21;95511.25;;;36.12;23.83
72409;BME280;60402;48.082;11.628;2022-09-12T08:38:53;95513.06;;;38.93;21.57
72409;BME280;60402;48.082;11.628;2022-09-12T08:41:31;95519.97;;;35.73;22.23
72409;BME280;60402;48.082;11.628;2022-09-12T08:44:14;95503.56;;;38.19;20.91
72409;BME280;60402;48.082;11.628;2022-09-12T08:49:22;95506.63;;;35.53;23.39
72409;BME280;60402;48.082;11.628;2022-09-12T08:51:49;95498.13;;;33.04;26.35
72409;BME280;60402;48.082;11.628;2022-09-12T08:54:20;95503.56;;;35.33;23.62
72409;BME280;60402;48.082;11.628;2022-09-12T08:56:48;95501.31;;;36.85;21.62
72409;BME280;60402;48.082;11.628;2022-09-12T08:59:14;95499.28;;;36.88;21.97
72409;BME280;60402;48.082;11.628;2022-09-12T09:01:42;95514.03;;;35.54;24.57
72409;BME280;60402;48.082;11.628;2022-09-12T09:04:28;95500.44;;;36.63;21.74
72409;BME280;60402;48.082;11.628;2022-09-12T09:15:16;95488.09;;;32.50;28.47
72409;BME280;60402;48.082;11.628;2022-09-12T09:17:53;95498.84;;;29.89;31.15
72409;BME280;60402;48.082;11.628;2022-09-12T09:20:25;95488.38;;;29.94;31.54
72409;BME280;60402;48.082;11.628;2022-09-12T09:23:18;95476.53;;;28.17;35.47
72409;BME280;60402;48.082;11.628;2022-09-12T09:31:15;95470.53;;;25.50;40.32
72409;BME280;60402;48.082;11.628;2022-09-12T09:33:41;95472.41;;;24.44;43.03
72409;BME280;60402;48.082;11.628;2022-09-12T09:39:00;95474.69;;;24.51;45.20
72409;BME280;60402;48.082;11.628;2022-09-12T09:41:41;95463.66;;;23.78;44.25
72409;BME280;60402;48.082;11.628;2022-09-12T09:44:12;95461.81;;;23.81;45.03
72409;BME280;60402;48.082;11.628;2022-09-12T09:46:37;95469.72;;;22.94;46.59
72409;BME280;60402;48.082;11.628;2022-09-12T09:49:04;95463.22;;;22.32;48.05
72409;BME280;60402;48.082;11.628;2022-09-12T09:51:37;95466.38;;;22.11;47.85
72409;BME280;60402;48.082;11.628;2022-09-12T09:54:07;95468.41;;;22.00;46.57
72409;BME280;60402;48.082;11.628;2022-09-12T09:56:36;95480.09;;;21.62;49.18
72409;BME280;60402;48.082;11.628;2022-09-12T10:01:34;95453.22;;;21.11;50.75
72409;BME280;60402;48.082;11.628;2022-09-12T10:03:59;95460.91;;;20.83;50.71
72409;BME280;60402;48.082;11.628;2022-09-12T10:06:29;95469.09;;;20.58;49.24
72409;BME280;60402;48.082;11.628;2022-09-12T10:09:05;95473.53;;;20.59;47.54
72409;BME280;60402;48.082;11.628;2022-09-12T10:11:31;95469.09;;;20.27;52.11
72409;BME280;60402;48.082;11.628;2022-09-12T10:13:57;95471.09;;;20.47;54.55
72409;BME280;60402;48.082;11.628;2022-09-12T10:16:28;95460.81;;;20.34;54.70
72409;BME280;60402;48.082;11.628;2022-09-12T10:18:56;95463.72;;;20.08;54.94
72409;BME280;60402;48.082;11.628;2022-09-12T10:21:27;95457.25;;;19.82;55.46
72409;BME280;60402;48.082;11.628;2022-09-12T10:32:18;95442.56;;;20.00;54.39
72409;BME280;60402;48.082;11.628;2022-09-12T10:34:45;95437.72;;;20.17;54.26
72409;BME280;60402;48.082;11.628;2022-09-12T10:39:49;95437.03;;;19.71;54.11
72409;BME280;60402;48.082;11.628;2022-09-12T10:47:42;95446.75;;;20.05;50.15
72409;BME280;60402;48.082;11.628;2022-09-12T10:52:54;95432.47;;;20.10;51.90
72409;BME280;60402;48.082;11.628;2022-09-12T10:55:27;95429.78;;;20.01;52.09
72409;BME280;60402;48.082;11.628;2022-09-12T10:58:08;95438.94;;;20.05;51.60
72409;BME280;60402;48.082;11.628;2022-09-12T11:00:39;95425.31;;;19.69;50.96
72409;BME280;60402;48.082;11.628;2022-09-12T11:06:34;95413.00;;;20.26;49.13
72409;BME280;60402;48.082;11.628;2022-09-12T11:09:09;95425.38;;;20.06;47.70
72409;BME280;60402;48.082;11.628;2022-09-12T11:12:01;95423.28;;;20.38;48.41
72409;BME280;60402;48.082;11.628;2022-09-12T11:17:13;95421.25;;;20.12;50.24
72409;BME280;60402;48.082;11.628;2022-09-12T11:20:11;95429.56;;;20.42;51.18
72409;BME280;60402;48.082;11.628;2022-09-12T11:25:39;95419.50;;;19.89;49.87
72409;BME280;60402;48.082;11.628;2022-09-12T11:28:34;95419.66;;;19.80;51.04
72409;BME280;60402;48.082;11.628;2022-09-12T11:33:51;95422.75;;;20.02;52.85
72409;BME280;60402;48.082;11.628;2022-09-12T11:41:29;95414.13;;;20.34;51.42
72409;BME280;60402;48.082;11.628;2022-09-12T11:46:35;95416.84;;;20.17;49.95
72409;BME280;60402;48.082;11.628;2022-09-12T11:51:50;95401.00;;;20.59;50.91
72409;BME280;60402;48.082;11.628;2022-09-12T11:54:37;95397.03;;;20.99;48.39
72409;BME280;60402;48.082;11.628;2022-09-12T12:00:08;95403.25;;;20.98;50.88
72409;BME280;60402;48.082;11.628;2022-09-12T12:02:54;95404.53;;;20.85;50.36
72409;BME280;60402;48.082;11.628;2022-09-12T12:05:28;95401.91;;;20.45;49.88
72409;BME280;60402;48.082;11.628;2022-09-12T12:07:57;95403.63;;;20.25;48.90
72409;BME280;60402;48.082;11.628;2022-09-12T12:12:57;95397.53;;;20.49;49.75
72409;BME280;60402;48.082;11.628;2022-09-12T12:15:25;95388.56;;;20.79;50.74
72409;BME280;60402;48.082;11.628;2022-09-12T12:20:26;95390.00;;;20.52;46.53
72409;BME280;60402;48.082;11.628;2022-09-12T12:22:53;95392.72;;;20.72;47.77
72409;BME280;60402;48.082;11.628;2022-09-12T12:27:59;95386.00;;;20.92;48.85
72409;BME280;60402;48.082;11.628;2022-09-12T12:43:53;95375.28;;;20.87;45.12
72409;BME280;60402;48.082;11.628;2022-09-12T12:46:27;95365.81;;;20.70;45.15
72409;BME280;60402;48.082;11.628;2022-09-12T12:53:56;95358.06;;;20.87;48.66
72409;BME280;60402;48.082;11.628;2022-09-12T12:56:42;95355.28;;;21.21;48.77
72409;BME280;60402;48.082;11.628;2022-09-12T12:59:25;95356.69;;;21.42;46.35
72409;BME280;60402;48.082;11.628;2022-09-12T13:01:56;95348.03;;;21.31;46.36
72409;BME280;60402;48.082;11.628;2022-09-12T13:04:26;95352.16;;;21.13;47.48
72409;BME280;60402;48.082;11.628;2022-09-12T13:07:04;95361.94;;;20.84;47.62
72409;BME280;60402;48.082;11.628;2022-09-12T13:09:43;95342.47;;;21.05;46.75
72409;BME280;60402;48.082;11.628;2022-09-12T13:12:29;95343.09;;;21.42;46.95
72409;BME280;60402;48.082;11.628;2022-09-12T13:14:57;95345.44;;;21.50;47.50
72409;BME280;60402;48.082;11.628;2022-09-12T13:17:39;95339.16;;;21.40;49.00
72409;BME280;60402;48.082;11.628;2022-09-12T13:22:43;95332.59;;;21.23;46.69
72409;BME280;60402;48.082;11.628;2022-09-12T13:30:31;95330.84;;;21.76;45.88
72409;BME280;60402;48.082;11.628;2022-09-12T13:33:04;95327.44;;;21.66;46.52
72409;BME280;60402;48.082;11.628;2022-09-12T13:35:45;95319.59;;;21.66;46.28
72409;BME280;60402;48.082;11.628;2022-09-12T13:38:40;95318.16;;;21.00;44.78
72409;BME280;60402;48.082;11.628;2022-09-12T13:43:45;95320.34;;;21.33;45.37
72409;BME280;60402;48.082;11.628;2022-09-12T13:46:17;95312.03;;;21.69;44.73
72409;BME280;60402;48.082;11.628;2022-09-12T13:48:47;95307.28;;;21.83;45.39
72409;BME280;60402;48.082;11.628;2022-09-12T13:51:25;95317.47;;;21.78;44.76
72409;BME280;60402;48.082;11.628;2022-09-12T13:53:54;95308.88;;;21.50;45.61
72409;BME280;60402;48.082;11.628;2022-09-12T13:56:22;95307.56;;;21.68;47.16
72409;BME280;60402;48.082;11.628;2022-09-12T13:58:53;95311.22;;;21.68;45.63
72409;BME280;60402;48.082;11.628;2022-09-12T14:01:20;95292.34;;;22.01;46.03
72409;BME280;60402;48.082;11.628;2022-09-12T14:03:50;95307.28;;;21.94;45.63
72409;BME280;60402;48.082;11.628;2022-09-12T14:09:14;95295.75;;;22.11;43.48
72409;BME280;60402;48.082;11.628;2022-09-12T14:11:40;95296.59;;;22.11;44.48
72409;BME280;60402;48.082;11.628;2022-09-12T14:14:26;95304.69;;;21.85;45.97
72409;BME280;60402;48.082;11.628;2022-09-12T14:16:56;95293.94;;;21.91;45.55
72409;BME280;60402;48.082;11.628;2022-09-12T14:19:23;95284.03;;;21.98;45.57
72409;BME280;60402;48.082;11.628;2022-09-12T14:21:51;95286.66;;;21.84;45.48
72409;BME280;60402;48.082;11.628;2022-09-12T14:24:17;95286.91;;;21.86;45.35
72409;BME280;60402;48.082;11.628;2022-09-12T14:26:48;95291.06;;;21.97;45.36
72409;BME280;60402;48.082;11.628;2022-09-12T14:29:15;95288.22;;;21.46;46.68
72409;BME280;60402;48.082;11.628;2022-09-12T14:31:42;95278.78;;;21.68;45.90
72409;BME280;60402;48.082;11.628;2022-09-12T14:34:13;95275.66;;;21.83;44.25
72409;BME280;60402;48.082;11.628;2022-09-12T14:36:41;95281.16;;;21.69;44.71
72409;BME280;60402;48.082;11.628;2022-09-12T14:39:18;95265.47;;;21.59;44.44
72409;BME280;60402;48.082;11.628;2022-09-12T14:41:46;95267.31;;;21.46;44.95
72409;BME280;60402;48.082;11.628;2022-09-12T14:44:19;95274.88;;;21.32;44.61
72409;BME280;60402;48.082;11.628;2022-09-12T14:46:46;95276.47;;;21.61;45.84
72409;BME280;60402;48.082;11.628;2022-09-12T14:49:20;95272.53;;;21.64;45.07
72409;BME280;60402;48.082;11.628;2022-09-12T14:51:59;95261.03;;;21.64;46.31
72409;BME280;60402;48.082;11.628;2022-09-12T14:59:45;95272.47;;;21.08;47.41
72409;BME280;60402;48.082;11.628;2022-09-12T15:04:54;95277.88;;;20.78;46.06
72409;BME280;60402;48.082;11.628;2022-09-12T15:07:41;95270.66;;;21.22;46.37
72409;BME280;60402;48.082;11.628;2022-09-12T15:10:22;95264.97;;;21.33;45.33
72409;BME280;60402;48.082;11.628;2022-09-12T15:13:02;95267.81;;;21.27;45.69
72409;BME280;60402;48.082;11.628;2022-09-12T15:15:28;95258.13;;;21.30;45.84
72409;BME280;60402;48.082;11.628;2022-09-12T15:17:54;95246.63;;;21.25;46.75
72409;BME280;60402;48.082;11.628;2022-09-12T15:20:19;95265.72;;;21.44;44.91
72409;BME280;60402;48.082;11.628;2022-09-12T15:22:45;95268.00;;;21.01;45.29
72409;BME280;60402;48.082;11.628;2022-09-12T15:25:13;95263.34;;;21.26;46.62
72409;BME280;60402;48.082;11.628;2022-09-12T15:27:38;95261.22;;;21.04;47.45
72409;BME280;60402;48.082;11.628;2022-09-12T15:30:06;95258.91;;;21.25;47.63
72409;BME280;60402;48.082;11.628;2022-09-12T15:32:32;95253.69;;;21.24;45.16